SAAJ/JNI METAR and TAF weather

Enter ICAO airport designator
Station Type Date Time Source
SAAJ METAR 2023/01/27 07:02 UTC NOAA

SAAJ 270702Z 27037KT 0300 BLDU OVC006 25/20 Q1005


Station Type Date Time Source
SAAJ Decoded METAR 2023/01/27 07:02 UTC NOAA

Junin Aerodrome, Argentina (SAAJ) 34-33S 060-55W 81M
Jan 27, 2023 - 02:02 AM EST / 2023.01.27 0702 UTC
Wind: from the W (270 degrees) at 43 MPH (37 KT):0
Visibility: less than 1 mile:0
Sky conditions: overcast
Weather: blowing widespread dust
Temperature: 77 F (25 C)
Dew Point: 68 F (20 C)
Relative Humidity: 73%
Pressure (altimeter): 29.68 in. Hg (1005 hPa)
ob: SAAJ 270702Z 27037KT 0300 BLDU OVC006 25/20 Q1005
cycle: 7

Station Type Date Time Source
SAAJ TAF UTC NOAA

Error!

Example: see airport list